Time;durP1;ratioP1;P1;durP2;ratioP2;P2;SDS_P1;SDS_P2;PMS_P1;PMS_P2;Temp;Humidity;BMP_temperature;BMP_pressure;BME280_temperature;BME280_humidity;BME280_pressure;Samples;Min_cycle;Max_cycle;Signal;HPM_P1;HPM_P2
2021/12/28 00:01:59;;;;;;;1.27;0.88;;;;;;;7.68;82.48;99074.84;5161641;28;20555;-86
2021/12/28 00:04:30;;;;;;;0.75;0.75;;;;;;;7.65;82.50;99072.34;5162209;28;20034;-86
2021/12/28 00:07:01;;;;;;;0.45;0.45;;;;;;;7.61;82.39;99070.81;5158454;28;20081;-86
2021/12/28 00:09:42;;;;;;;0.50;0.50;;;;;;;7.64;82.24;99068.06;5150345;28;20049;-85
2021/12/28 00:12:12;;;;;;;0.57;0.57;;;;;;;7.64;82.36;99066.31;5180009;28;20032;-86
2021/12/28 00:16:00;;;;;;;0.50;0.50;;;;;;;7.64;82.37;99061.09;5147362;28;20733;-86
2021/12/28 00:17:59;;;;;;;1.67;1.52;;;;;;;7.62;82.18;99052.47;5153806;28;20042;-85
2021/12/28 00:20:41;;;;;;;0.43;0.43;;;;;;;7.53;82.43;99051.09;5133445;28;20041;-85
2021/12/28 00:23:25;;;;;;;5.25;2.05;;;;;;;7.47;82.68;99051.34;5147732;28;20049;-87
2021/12/28 00:26:24;;;;;;;0.82;0.82;;;;;;;7.48;82.41;99045.19;5153167;28;20095;-85
2021/12/28 00:37:50;;;;;;;0.60;0.60;;;;;;;7.56;82.13;99032.69;5110367;28;20130;-86
2021/12/28 00:42:10;;;;;;;0.85;0.82;;;;;;;7.55;82.13;99033.63;5073206;29;20555;-86
2021/12/28 00:44:41;;;;;;;0.85;0.85;;;;;;;7.59;82.06;99023.03;5083800;28;20035;-86
2021/12/28 00:47:11;;;;;;;2.05;1.35;;;;;;;7.62;82.03;99025.53;5161045;28;21113;-86
2021/12/28 00:49:42;;;;;;;0.50;0.50;;;;;;;7.60;81.90;99022.13;5163864;28;20046;-87
2021/12/28 00:52:13;;;;;;;3.80;2.00;;;;;;;7.56;81.80;99017.00;5164239;28;20034;-87
2021/12/28 00:54:43;;;;;;;0.50;0.50;;;;;;;7.56;81.79;99018.78;5162258;28;20171;-87
2021/12/28 00:57:14;;;;;;;0.73;0.73;;;;;;;7.54;82.01;99018.88;5153938;28;20030;-86
2021/12/28 00:59:45;;;;;;;0.77;0.77;;;;;;;7.60;81.79;99024.72;5163001;28;20053;-87
2021/12/28 01:02:15;;;;;;;0.70;0.70;;;;;;;7.52;81.37;99012.84;5162786;28;20045;-86
2021/12/28 01:04:49;;;;;;;0.60;0.60;;;;;;;7.53;81.68;99021.53;5146220;28;20457;-86
2021/12/28 01:07:20;;;;;;;0.80;0.80;;;;;;;7.54;81.52;99020.59;5163599;28;20018;-85
2021/12/28 01:09:51;;;;;;;2.08;1.15;;;;;;;7.55;81.29;99010.13;5183512;28;20042;-87
2021/12/28 01:12:25;;;;;;;2.15;1.95;;;;;;;7.49;81.65;99007.75;5150953;28;20026;-86
2021/12/28 01:14:56;;;;;;;0.52;0.52;;;;;;;7.47;82.12;99006.13;5171414;28;20150;-87
2021/12/28 01:17:27;;;;;;;1.45;1.38;;;;;;;7.42;81.87;99008.09;5158815;28;20047;-86
2021/12/28 01:19:57;;;;;;;0.80;0.80;;;;;;;7.53;82.16;99000.63;5126119;28;20100;-85
2021/12/28 01:22:28;;;;;;;0.80;0.80;;;;;;;7.48;81.77;98998.22;5162999;28;20095;-86
2021/12/28 01:25:02;;;;;;;0.95;0.95;;;;;;;7.49;81.87;98999.91;5142284;28;20069;-86
2021/12/28 01:27:36;;;;;;;0.40;0.40;;;;;;;7.43;82.02;99000.19;5148484;28;20034;-85
2021/12/28 01:30:08;;;;;;;0.95;0.95;;;;;;;7.46;81.83;98993.97;5112486;28;20046;-86
2021/12/28 01:32:40;;;;;;;2.60;2.40;;;;;;;7.40;81.72;98989.88;5161302;28;20030;-87
2021/12/28 01:35:14;;;;;;;0.93;0.93;;;;;;;7.33;81.86;98997.13;5102564;28;20042;-86
2021/12/28 01:37:46;;;;;;;1.08;1.08;;;;;;;7.42;81.95;98992.44;5147282;28;20037;-86
2021/12/28 01:40:23;;;;;;;1.67;1.58;;;;;;;7.37;82.26;98995.22;5177950;28;20042;-86
2021/12/28 01:43:13;;;;;;;0.93;0.93;;;;;;;7.38;82.04;98986.50;5161772;28;20323;-86
2021/12/28 01:45:53;;;;;;;1.20;1.20;;;;;;;7.40;81.73;98990.72;5145093;28;20514;-86
2021/12/28 01:48:31;;;;;;;0.75;0.65;;;;;;;7.41;81.74;98996.78;5163185;28;20038;-86
2021/12/28 01:51:16;;;;;;;1.15;1.05;;;;;;;7.41;81.82;98986.34;5162105;28;20022;-86
2021/12/28 01:53:50;;;;;;;0.93;0.93;;;;;;;7.34;82.06;98979.69;5162984;28;20046;-86
2021/12/28 01:56:27;;;;;;;1.17;1.15;;;;;;;7.35;82.00;98982.25;5150242;28;20030;-84
2021/12/28 01:59:10;;;;;;;1.88;1.77;;;;;;;7.41;82.08;98978.53;5165335;28;20045;-86
2021/12/28 02:01:42;;;;;;;0.88;0.88;;;;;;;7.39;81.90;98977.75;5169242;28;20113;-86
2021/12/28 02:04:23;;;;;;;0.98;0.98;;;;;;;7.41;81.74;98970.69;5149263;28;20038;-85
2021/12/28 02:07:02;;;;;;;7.57;0.98;;;;;;;7.33;81.93;98973.63;5150830;28;20044;-85
2021/12/28 02:09:33;;;;;;;0.70;0.70;;;;;;;7.38;81.93;98973.44;5167325;28;20025;-86
2021/12/28 02:12:04;;;;;;;1.13;1.13;;;;;;;7.34;82.55;98966.66;5150849;28;20041;-85
2021/12/28 02:14:36;;;;;;;0.60;0.60;;;;;;;7.27;82.34;98968.69;5165120;28;20061;-86
2021/12/28 02:17:06;;;;;;;0.77;0.75;;;;;;;7.34;82.28;98975.34;5144350;28;20026;-85
2021/12/28 02:19:37;;;;;;;0.40;0.40;;;;;;;7.34;82.44;98969.25;5164871;28;20068;-85
2021/12/28 02:22:08;;;;;;;1.13;1.02;;;;;;;7.33;82.80;98963.19;5168416;28;20029;-86
2021/12/28 02:24:41;;;;;;;0.40;0.40;;;;;;;7.36;82.82;98967.44;5163650;28;20034;-85
2021/12/28 02:27:14;;;;;;;1.75;1.50;;;;;;;7.33;83.01;98960.59;5166024;28;20029;-87
2021/12/28 02:29:44;;;;;;;0.50;0.50;;;;;;;7.45;82.71;98961.84;5148845;28;20041;-85
2021/12/28 02:32:15;;;;;;;1.33;1.13;;;;;;;7.40;83.21;98958.56;5148437;28;20041;-85
2021/12/28 02:34:46;;;;;;;1.63;0.80;;;;;;;7.42;83.09;98961.13;5157966;28;20072;-85
2021/12/28 02:37:17;;;;;;;0.55;0.55;;;;;;;7.40;83.78;98958.56;5162881;28;20040;-86
2021/12/28 02:39:48;;;;;;;1.40;1.33;;;;;;;7.42;83.33;98958.50;5195245;28;20552;-85
2021/12/28 02:42:26;;;;;;;0.52;0.52;;;;;;;7.41;83.80;98960.25;5184975;28;20030;-86
2021/12/28 02:45:07;;;;;;;0.63;0.63;;;;;;;7.45;83.48;98956.63;5146895;28;20046;-85
2021/12/28 02:47:43;;;;;;;0.68;0.68;;;;;;;7.52;83.82;98952.81;5163485;28;20033;-84
2021/12/28 02:50:33;;;;;;;0.82;0.82;;;;;;;7.57;84.13;98948.25;5167761;28;20041;-84
2021/12/28 02:53:03;;;;;;;0.50;0.50;;;;;;;7.53;84.18;98949.31;5161168;28;20029;-85
2021/12/28 02:55:37;;;;;;;1.23;1.20;;;;;;;7.56;84.54;98950.94;5162395;28;20033;-85
2021/12/28 02:58:21;;;;;;;0.50;0.50;;;;;;;7.63;84.21;98949.75;5179866;28;20711;-84
2021/12/28 03:01:06;;;;;;;0.45;0.45;;;;;;;7.63;84.91;98934.09;5161295;28;20130;-85
2021/12/28 03:03:38;;;;;;;0.57;0.57;;;;;;;7.70;84.94;98939.91;5164191;28;20046;-84
2021/12/28 03:06:13;;;;;;;1.15;1.15;;;;;;;7.86;85.27;98929.59;5146791;28;20021;-84
2021/12/28 03:08:48;;;;;;;3.40;1.48;;;;;;;7.74;85.49;98925.78;5163167;28;20041;-86
2021/12/28 03:11:21;;;;;;;1.35;1.25;;;;;;;7.82;85.37;98925.44;5163980;28;20376;-86
2021/12/28 03:13:57;;;;;;;2.15;2.05;;;;;;;7.82;84.57;98934.13;5177924;28;20045;-85
2021/12/28 03:16:31;;;;;;;0.40;0.40;;;;;;;7.80;84.95;98930.75;5173708;28;20080;-86
2021/12/28 03:19:03;;;;;;;;;;;;;;;7.77;85.51;98928.25;5147538;28;20048;-86
2021/12/28 03:21:35;;;;;;;0.50;0.50;;;;;;;7.86;85.32;98925.25;5158838;28;20245;-86
2021/12/28 03:24:08;;;;;;;1.45;1.27;;;;;;;7.89;84.55;98924.25;5170651;28;20040;-86
2021/12/28 03:26:39;;;;;;;0.80;0.80;;;;;;;7.92;84.56;98918.03;5157052;28;20038;-86
2021/12/28 03:29:10;;;;;;;3.25;2.15;;;;;;;7.91;84.70;98909.38;5172933;28;20057;-85
2021/12/28 03:31:40;;;;;;;1.67;1.58;;;;;;;7.85;85.34;98918.31;5150025;28;20486;-85
2021/12/28 03:34:11;;;;;;;1.13;1.02;;;;;;;7.91;84.95;98918.97;5163883;28;20072;-85
2021/12/28 03:36:42;;;;;;;7.90;0.70;;;;;;;7.86;85.50;98911.31;5165592;28;20027;-85
2021/12/28 03:39:13;;;;;;;0.35;0.35;;;;;;;7.96;84.75;98903.94;5159022;28;20045;-85
2021/12/28 03:41:43;;;;;;;0.60;0.60;;;;;;;7.96;84.71;98903.94;5163573;28;20060;-85
2021/12/28 03:44:14;;;;;;;0.88;0.88;;;;;;;7.98;84.40;98907.31;5177893;28;20128;-85
2021/12/28 03:46:53;;;;;;;0.40;0.40;;;;;;;8.10;84.58;98893.72;5147122;28;20060;-86
2021/12/28 03:49:27;;;;;;;0.40;0.40;;;;;;;8.04;84.08;98894.81;5119042;28;20022;-85
2021/12/28 03:51:58;;;;;;;0.40;0.40;;;;;;;7.88;86.07;98892.09;5178720;28;20344;-86
2021/12/28 03:54:28;;;;;;;0.50;0.50;;;;;;;7.94;85.29;98890.09;5184302;28;20046;-85
2021/12/28 03:56:59;;;;;;;1.40;1.30;;;;;;;7.87;85.16;98889.53;5161115;28;20044;-84
2021/12/28 03:59:30;;;;;;;2.30;2.13;;;;;;;7.92;84.93;98881.47;5145653;28;20046;-84
2021/12/28 04:02:02;;;;;;;0.50;0.50;;;;;;;8.01;84.70;98881.06;5146334;28;20026;-83
2021/12/28 04:04:33;;;;;;;3.72;1.48;;;;;;;7.99;84.92;98883.75;5162435;28;20045;-84
2021/12/28 04:07:07;;;;;;;0.60;0.60;;;;;;;7.99;84.19;98877.66;5166872;28;20022;-85
2021/12/28 04:12:22;;;;;;;3.95;1.95;;;;;;;7.96;85.51;98870.81;5161941;28;20455;-84
2021/12/28 04:14:53;;;;;;;0.47;0.47;;;;;;;8.00;85.29;98861.94;5177825;28;20053;-85
2021/12/28 04:17:26;;;;;;;1.15;1.05;;;;;;;8.04;84.91;98865.25;5159480;28;20765;-86
2021/12/28 04:19:57;;;;;;;0.80;0.80;;;;;;;8.04;84.87;98862.66;5145250;28;20049;-85
2021/12/28 04:22:28;;;;;;;0.40;0.40;;;;;;;8.03;85.26;98867.00;5145348;28;20292;-85
2021/12/28 04:24:59;;;;;;;0.60;0.60;;;;;;;8.00;85.41;98858.47;5182505;28;20048;-85
2021/12/28 04:28:28;;;;;;;0.40;0.40;;;;;;;8.01;86.12;98847.13;5162246;28;20026;-85
2021/12/28 04:31:01;;;;;;;1.85;1.75;;;;;;;8.11;85.94;98851.00;5135645;28;20034;-85
2021/12/28 04:33:58;;;;;;;0.40;0.40;;;;;;;8.04;85.77;98846.97;5128262;28;20046;-85
2021/12/28 04:36:50;;;;;;;0.82;0.82;;;;;;;8.04;86.24;98844.38;5156781;28;20037;-85
2021/12/28 04:39:20;;;;;;;0.40;0.40;;;;;;;8.05;86.32;98848.69;5146048;28;20042;-86
2021/12/28 04:41:56;;;;;;;0.50;0.50;;;;;;;8.07;85.58;98844.22;5170834;28;20132;-85
2021/12/28 04:44:27;;;;;;;0.47;0.47;;;;;;;8.09;86.00;98846.78;5179295;28;20061;-85
2021/12/28 04:47:01;;;;;;;;;;;;;;;8.14;86.36;98843.00;5171166;28;20019;-85
2021/12/28 04:49:31;;;;;;;1.10;1.10;;;;;;;8.06;86.74;98829.44;5194615;28;19928;-85
2021/12/28 04:52:04;;;;;;;0.73;0.73;;;;;;;8.10;85.95;98830.19;5191712;28;20688;-85
2021/12/28 04:54:37;;;;;;;0.80;0.80;;;;;;;8.05;87.11;98825.16;5160247;28;20038;-85
2021/12/28 04:57:07;;;;;;;0.40;0.40;;;;;;;8.09;87.08;98826.72;5145976;28;20132;-86
2021/12/28 04:59:38;;;;;;;1.25;1.25;;;;;;;8.13;87.56;98833.50;5158182;28;20283;-84
2021/12/28 05:02:09;;;;;;;0.73;0.73;;;;;;;8.24;85.81;98832.97;5194926;28;20025;-85
2021/12/28 05:04:40;;;;;;;0.75;0.75;;;;;;;8.28;85.83;98829.28;5159753;28;20664;-85
2021/12/28 05:07:10;;;;;;;0.40;0.40;;;;;;;8.22;85.58;98831.38;5162298;28;20030;-85
2021/12/28 05:09:43;;;;;;;0.50;0.50;;;;;;;8.21;85.70;98824.44;5160718;28;20634;-85
2021/12/28 05:12:17;;;;;;;0.60;0.60;;;;;;;8.33;85.41;98823.84;5140677;28;20022;-85
2021/12/28 05:14:48;;;;;;;0.75;0.75;;;;;;;8.19;87.13;98829.72;5160597;28;20041;-85
2021/12/28 05:17:19;;;;;;;0.70;0.70;;;;;;;8.15;87.44;98820.34;5144046;28;20040;-85
2021/12/28 05:19:50;;;;;;;2.85;1.80;;;;;;;8.28;86.27;98816.22;5160213;28;20046;-85
2021/12/28 05:22:21;;;;;;;0.50;0.50;;;;;;;8.33;86.29;98814.25;5158875;28;20033;-84
2021/12/28 05:24:51;;;;;;;1.65;1.55;;;;;;;8.36;85.66;98821.09;5159539;28;20100;-85
2021/12/28 05:27:22;;;;;;;1.90;0.98;;;;;;;8.28;86.42;98825.84;5181554;28;20108;-85
2021/12/28 05:29:52;;;;;;;6.97;2.95;;;;;;;8.27;85.98;98824.13;5165209;28;20038;-84
2021/12/28 05:32:29;;;;;;;1.08;1.05;;;;;;;8.33;86.21;98834.28;5164618;28;20029;-85
2021/12/28 05:35:08;;;;;;;0.90;0.90;;;;;;;8.18;87.67;98836.72;5177893;28;20465;-85
2021/12/28 05:37:39;;;;;;;0.50;0.50;;;;;;;8.24;86.70;98825.13;5160400;28;20030;-85
2021/12/28 05:40:12;;;;;;;13.73;2.28;;;;;;;8.37;86.66;98814.94;5168731;28;20038;-85
2021/12/28 05:42:42;;;;;;;5.10;2.65;;;;;;;8.33;86.36;98816.00;5163630;28;20033;-85
2021/12/28 05:45:13;;;;;;;0.73;0.73;;;;;;;8.31;86.06;98804.75;5178603;28;20490;-85
2021/12/28 05:52:05;;;;;;;0.40;0.40;;;;;;;8.35;85.91;98801.09;5175436;28;20049;-85
2021/12/28 05:54:36;;;;;;;1.48;1.00;;;;;;;8.39;86.35;98797.41;5150028;28;20033;-86
2021/12/28 05:57:09;;;;;;;0.73;0.70;;;;;;;8.42;86.21;98802.50;5177084;28;20076;-84
2021/12/28 05:59:39;;;;;;;0.55;0.55;;;;;;;8.33;86.59;98802.94;5166261;28;20776;-84
2021/12/28 06:02:15;;;;;;;0.75;0.75;;;;;;;8.37;85.92;98799.25;5151879;28;20210;-86
2021/12/28 06:04:48;;;;;;;3.53;1.50;;;;;;;8.36;86.20;98797.56;5138040;28;20069;-86
2021/12/28 06:11:12;;;;;;;0.47;0.47;;;;;;;8.38;86.11;98798.34;5110922;28;20039;-85
2021/12/28 06:13:55;;;;;;;2.72;1.38;;;;;;;8.39;86.03;98801.78;5146896;28;20121;-85
2021/12/28 06:17:03;;;;;;;0.47;0.47;;;;;;;8.42;86.26;98789.41;5170276;28;20132;-84
2021/12/28 06:23:35;;;;;;;1.65;1.52;;;;;;;8.44;86.36;98800.66;5164126;28;20038;-86
2021/12/28 06:26:31;;;;;;;0.63;0.63;;;;;;;8.38;86.20;98800.97;5164144;28;20042;-85
2021/12/28 06:29:54;;;;;;;1.08;0.98;;;;;;;8.41;86.19;98798.19;5125768;28;20495;-86
2021/12/28 06:33:28;;;;;;;1.48;1.38;;;;;;;8.41;86.18;98799.97;5090902;28;20053;-86
2021/12/28 06:36:05;;;;;;;2.05;0.93;;;;;;;8.50;85.49;98805.59;5160970;28;20022;-86
2021/12/28 06:38:36;;;;;;;1.13;1.08;;;;;;;8.42;85.92;98806.88;5150497;28;20042;-86
2021/12/28 06:44:52;;;;;;;1.75;1.35;;;;;;;8.43;86.09;98809.41;5151449;28;20042;-85
2021/12/28 06:47:26;;;;;;;0.40;0.40;;;;;;;8.49;85.23;98803.91;5148340;28;20032;-86
2021/12/28 06:50:17;;;;;;;0.75;0.75;;;;;;;8.52;85.59;98802.91;5125188;28;20052;-86
2021/12/28 06:52:50;;;;;;;0.95;0.95;;;;;;;8.47;85.54;98808.34;5148725;28;20105;-86
2021/12/28 06:55:21;;;;;;;1.75;1.58;;;;;;;8.48;86.00;98810.06;5150466;28;20716;-86
2021/12/28 06:57:52;;;;;;;0.32;0.32;;;;;;;8.49;85.39;98811.75;5149280;28;20092;-84
2021/12/28 07:00:25;;;;;;;0.70;0.70;;;;;;;8.50;86.19;98810.84;5163002;28;20056;-84
2021/12/28 07:02:56;;;;;;;0.40;0.40;;;;;;;8.49;85.74;98814.38;5163854;28;20059;-85
2021/12/28 07:05:26;;;;;;;0.75;0.60;;;;;;;8.48;85.85;98812.66;5160661;28;20444;-86
2021/12/28 07:07:57;;;;;;;0.45;0.45;;;;;;;8.48;85.52;98809.22;5196862;28;20034;-87
2021/12/28 07:10:30;;;;;;;0.95;0.95;;;;;;;8.48;86.14;98812.66;5164554;28;20026;-83
2021/12/28 07:13:01;;;;;;;1.35;1.13;;;;;;;8.52;86.00;98809.91;5156831;28;20081;-85
2021/12/28 07:15:31;;;;;;;0.50;0.50;;;;;;;8.44;87.00;98797.19;5163788;28;20033;-85
2021/12/28 07:18:02;;;;;;;0.55;0.55;;;;;;;8.47;86.34;98800.50;5164269;28;20303;-85
2021/12/28 07:20:33;;;;;;;0.60;0.60;;;;;;;8.52;86.25;98789.00;5171844;28;20026;-85
2021/12/28 07:23:04;;;;;;;0.43;0.43;;;;;;;8.48;86.23;98770.84;5185733;28;20034;-85
2021/12/28 07:25:35;;;;;;;0.50;0.50;;;;;;;8.50;85.84;98763.78;5152064;28;20120;-85
2021/12/28 07:28:05;;;;;;;0.40;0.40;;;;;;;8.49;85.88;98767.31;5151084;28;20522;-84
2021/12/28 07:30:36;;;;;;;0.60;0.60;;;;;;;8.46;86.17;98762.22;5184143;28;20029;-83
2021/12/28 07:33:07;;;;;;;0.85;0.85;;;;;;;8.56;85.59;98773.09;5149327;28;20037;-88
2021/12/28 07:35:38;;;;;;;1.23;1.23;;;;;;;8.54;85.82;98780.16;5169415;28;20033;-84
2021/12/28 07:38:09;;;;;;;0.75;0.75;;;;;;;8.55;85.54;98783.63;5169569;28;20446;-87
2021/12/28 07:40:39;;;;;;;0.70;0.70;;;;;;;8.60;85.57;98784.25;5140205;28;20031;-87
2021/12/28 07:43:10;;;;;;;0.98;0.95;;;;;;;8.56;85.47;98783.56;5183737;28;20045;-84
2021/12/28 07:45:41;;;;;;;0.93;0.93;;;;;;;8.63;85.09;98784.94;5169186;28;20052;-85
2021/12/28 07:48:11;;;;;;;0.47;0.47;;;;;;;8.54;85.42;98789.78;5170342;28;20041;-84
2021/12/28 07:50:43;;;;;;;0.55;0.55;;;;;;;8.52;85.36;98796.84;5178336;28;20026;-84
2021/12/28 07:53:13;;;;;;;0.50;0.50;;;;;;;8.48;85.44;98796.97;5166008;28;20038;-87
2021/12/28 07:55:44;;;;;;;0.65;0.65;;;;;;;8.52;85.73;98802.06;5162240;28;20563;-83
2021/12/28 07:58:15;;;;;;;2.95;1.30;;;;;;;8.52;85.23;98804.69;5169624;28;20049;-83
2021/12/28 08:00:45;;;;;;;0.60;0.60;;;;;;;8.59;85.80;98804.31;5167688;28;20022;-84
2021/12/28 08:03:16;;;;;;;0.82;0.82;;;;;;;8.54;85.67;98811.53;5148759;28;20045;-84
2021/12/28 08:05:46;;;;;;;0.93;0.93;;;;;;;8.53;86.40;98812.44;5171370;28;20360;-83
2021/12/28 08:08:17;;;;;;;0.93;0.93;;;;;;;8.57;85.57;98820.97;5151995;28;20521;-84
2021/12/28 08:10:48;;;;;;;0.40;0.40;;;;;;;8.56;85.26;98825.38;5182827;28;20037;-85
2021/12/28 08:13:18;;;;;;;0.50;0.50;;;;;;;8.61;86.25;98819.91;5151128;28;20106;-84
2021/12/28 08:15:49;;;;;;;0.60;0.60;;;;;;;8.57;86.24;98816.63;5185701;28;20093;-83
2021/12/28 08:18:20;;;;;;;0.52;0.52;;;;;;;8.58;85.85;98809.59;5148688;28;20037;-84
2021/12/28 08:20:50;;;;;;;0.47;0.47;;;;;;;8.58;86.39;98797.41;5176797;28;20064;-86
2021/12/28 08:23:24;;;;;;;0.82;0.82;;;;;;;8.50;87.06;98795.16;5183532;28;20034;-83
2021/12/28 08:25:57;;;;;;;0.77;0.77;;;;;;;8.52;86.62;98802.06;5150205;28;20538;-86
2021/12/28 08:28:29;;;;;;;;;;;;;;;8.55;86.62;98801.94;5185626;28;20668;-83
2021/12/28 08:31:00;;;;;;;0.30;0.30;;;;;;;8.61;86.25;98802.44;5165018;28;19952;-82
2021/12/28 08:33:30;;;;;;;0.77;0.77;;;;;;;8.64;86.15;98811.91;5180893;28;20088;-83
2021/12/28 08:36:01;;;;;;;0.40;0.40;;;;;;;8.60;86.67;98807.75;5164517;28;20041;-84
2021/12/28 08:38:32;;;;;;;0.40;0.40;;;;;;;8.57;86.12;98815.75;5163597;28;20072;-83
2021/12/28 08:41:02;;;;;;;0.50;0.50;;;;;;;8.60;86.33;98815.59;5180443;28;20030;-81
2021/12/28 08:43:33;;;;;;;0.80;0.80;;;;;;;8.66;86.24;98812.69;5164221;28;20030;-82
2021/12/28 08:46:04;;;;;;;0.55;0.55;;;;;;;8.64;86.39;98817.13;5180284;28;20524;-85
2021/12/28 08:48:34;;;;;;;0.77;0.77;;;;;;;8.70;86.06;98810.75;5175496;23;20611;-87
2021/12/28 08:51:05;;;;;;;0.50;0.50;;;;;;;8.60;86.67;98803.38;5156315;28;20042;-85
2021/12/28 08:57:25;;;;;;;0.40;0.40;;;;;;;8.68;86.37;98808.22;5193059;28;20036;-85
2021/12/28 09:00:08;;;;;;;0.57;0.57;;;;;;;8.69;86.67;98804.69;5162508;28;20517;-88
2021/12/28 09:02:40;;;;;;;0.50;0.50;;;;;;;8.70;86.31;98805.53;5159528;28;20117;-87
2021/12/28 09:05:10;;;;;;;2.65;0.95;;;;;;;8.72;86.71;98801.06;5175772;28;20041;-86
2021/12/28 09:07:41;;;;;;;0.73;0.73;;;;;;;8.73;86.20;98790.53;5178710;28;20017;-87
2021/12/28 09:10:11;;;;;;;0.40;0.40;;;;;;;8.76;86.22;98795.63;5177382;28;20075;-86
2021/12/28 09:12:42;;;;;;;0.73;0.73;;;;;;;8.73;86.53;98790.53;5162866;28;20038;-86
2021/12/28 09:15:13;;;;;;;0.50;0.50;;;;;;;8.73;86.94;98797.53;5176234;28;20091;-87
2021/12/28 09:17:44;;;;;;;0.40;0.40;;;;;;;8.85;86.27;98785.63;5181810;28;20032;-87
2021/12/28 09:20:19;;;;;;;0.50;0.50;;;;;;;8.79;86.68;98782.41;5178285;28;20038;-85
2021/12/28 09:22:51;;;;;;;0.40;0.40;;;;;;;8.77;87.14;98786.84;5158219;28;20030;-87
2021/12/28 09:25:23;;;;;;;0.40;0.40;;;;;;;8.80;86.56;98784.06;5196923;28;20105;-88
2021/12/28 09:27:54;;;;;;;0.52;0.52;;;;;;;8.78;87.21;98790.31;5160068;28;20379;-87
2021/12/28 09:30:25;;;;;;;0.40;0.40;;;;;;;8.87;86.30;98791.63;5164706;28;20037;-87
2021/12/28 09:32:55;;;;;;;0.40;0.40;;;;;;;8.83;86.58;98788.31;5190769;28;20025;-88
2021/12/28 09:35:28;;;;;;;0.32;0.32;;;;;;;8.87;86.46;98787.22;5162519;28;20030;-86
2021/12/28 09:37:59;;;;;;;2.28;0.98;;;;;;;8.89;86.99;98785.38;5167523;28;20042;-87
2021/12/28 09:40:32;;;;;;;0.40;0.40;;;;;;;8.88;86.75;98796.75;5168861;28;20494;-87
2021/12/28 09:43:06;;;;;;;0.40;0.40;;;;;;;8.83;87.07;98783.09;5166891;28;20021;-86
2021/12/28 09:45:37;;;;;;;0.50;0.50;;;;;;;8.87;86.89;98786.38;5171396;28;20036;-86
2021/12/28 09:48:09;;;;;;;0.73;0.73;;;;;;;8.90;86.57;98784.47;5173164;28;20405;-86
2021/12/28 09:50:41;;;;;;;0.60;0.60;;;;;;;8.85;87.24;98785.63;5194773;28;20018;-87
2021/12/28 09:53:14;;;;;;;0.63;0.63;;;;;;;8.89;87.09;98792.38;5188418;28;20087;-87
2021/12/28 09:55:45;;;;;;;0.45;0.45;;;;;;;8.86;87.59;98792.53;5160028;28;20038;-86
2021/12/28 09:58:15;;;;;;;0.40;0.40;;;;;;;8.97;87.57;98787.59;5157623;28;20056;-87
2021/12/28 10:00:46;;;;;;;1.13;1.02;;;;;;;8.91;87.61;98787.91;5173080;28;20021;-88
2021/12/28 10:03:17;;;;;;;0.40;0.40;;;;;;;8.91;87.91;98782.69;5187337;28;20044;-86
2021/12/28 10:05:48;;;;;;;1.30;1.20;;;;;;;8.93;87.90;98779.06;5175107;28;20409;-88
2021/12/28 10:08:23;;;;;;;0.75;0.73;;;;;;;8.99;87.74;98777.91;5178037;28;20034;-87
2021/12/28 10:10:57;;;;;;;0.55;0.55;;;;;;;8.96;88.22;98772.84;5174313;28;20029;-89
2021/12/28 10:13:29;;;;;;;0.30;0.30;;;;;;;8.96;88.21;98770.22;5159232;28;20091;-86
2021/12/28 10:16:00;;;;;;;0.55;0.55;;;;;;;9.00;88.01;98761.28;5171662;28;20080;-87
2021/12/28 10:18:30;;;;;;;0.40;0.40;;;;;;;9.03;87.62;98762.88;5172874;28;20035;-87
2021/12/28 10:21:03;;;;;;;0.40;0.40;;;;;;;8.98;87.89;98752.66;5173181;28;20025;-88
2021/12/28 10:23:34;;;;;;;0.40;0.40;;;;;;;9.00;88.38;98753.44;5156172;28;20472;-89
2021/12/28 10:26:10;;;;;;;0.40;0.40;;;;;;;9.06;88.39;98749.66;5160833;28;20029;-88
2021/12/28 10:28:41;;;;;;;0.47;0.47;;;;;;;9.16;87.68;98734.31;5179069;28;20089;-87
2021/12/28 10:31:19;;;;;;;0.43;0.43;;;;;;;9.09;87.74;98739.03;5188115;28;20026;-89
2021/12/28 10:33:55;;;;;;;0.40;0.40;;;;;;;9.11;87.72;98732.81;5172802;28;20050;-88
2021/12/28 10:36:33;;;;;;;0.40;0.40;;;;;;;9.16;87.52;98729.06;5183473;28;20030;-87
2021/12/28 10:39:06;;;;;;;0.40;0.40;;;;;;;9.21;87.73;98724.47;5160072;28;20038;-90
2021/12/28 10:41:41;;;;;;;0.40;0.40;;;;;;;9.16;87.99;98718.63;5160514;28;20057;-88
2021/12/28 10:44:12;;;;;;;0.40;0.40;;;;;;;9.18;87.47;98716.75;5172973;28;20043;-91
2021/12/28 10:46:42;;;;;;;0.60;0.60;;;;;;;9.22;87.63;98713.91;5158575;28;20610;-88
2021/12/28 10:49:14;;;;;;;0.47;0.47;;;;;;;9.24;87.44;98700.72;5154418;28;20041;-88
2021/12/28 10:51:46;;;;;;;0.40;0.40;;;;;;;9.25;87.35;98700.66;5168982;28;20026;-88
2021/12/28 10:54:16;;;;;;;0.40;0.40;;;;;;;9.24;87.79;98695.50;5182018;28;20042;-89
2021/12/28 10:56:54;;;;;;;0.35;0.35;;;;;;;9.25;88.06;98697.19;5194379;28;20021;-89
2021/12/28 10:59:31;;;;;;;0.32;0.32;;;;;;;9.26;88.34;98689.25;5173790;28;20058;-88
2021/12/28 11:02:03;;;;;;;0.77;0.77;;;;;;;9.33;88.19;98688.94;5181788;28;20101;-88
2021/12/28 11:04:36;;;;;;;0.40;0.40;;;;;;;9.33;88.66;98679.28;5182740;28;20034;-91
2021/12/28 11:07:08;;;;;;;0.40;0.40;;;;;;;9.36;88.85;98681.75;5165175;28;20030;-89
2021/12/28 11:09:49;;;;;;;0.40;0.40;;;;;;;9.42;88.67;98664.88;5176479;28;20397;-92
2021/12/28 11:12:20;;;;;;;0.40;0.40;;;;;;;9.44;89.43;98670.84;5170452;28;20030;-88
2021/12/28 11:14:50;;;;;;;0.40;0.40;;;;;;;9.55;88.68;98662.41;5153406;28;20132;-88
2021/12/28 11:17:30;;;;;;;0.40;0.40;;;;;;;9.58;88.54;98663.09;5160574;28;20037;-90
2021/12/28 11:20:01;;;;;;;0.30;0.30;;;;;;;9.59;88.94;98663.94;5151398;28;20549;-90
2021/12/28 11:22:32;;;;;;;0.40;0.40;;;;;;;9.59;88.67;98653.44;5168386;28;20083;-88
2021/12/28 11:25:17;;;;;;;0.30;0.30;;;;;;;9.65;89.13;98650.47;5155151;28;20089;-87
2021/12/28 11:27:47;;;;;;;0.30;0.30;;;;;;;9.67;88.15;98629.47;5153587;28;20030;-90
2021/12/28 11:30:18;;;;;;;0.35;0.35;;;;;;;9.70;88.15;98639.75;5168514;28;20057;-88
2021/12/28 11:33:08;;;;;;;0.40;0.40;;;;;;;9.71;88.26;98630.97;5151457;28;20512;-88
2021/12/28 11:35:41;;;;;;;0.40;0.40;;;;;;;9.78;88.55;98634.91;5166229;28;20485;-87
2021/12/28 11:38:12;;;;;;;0.40;0.40;;;;;;;9.83;88.19;98634.66;5152965;28;20042;-88
2021/12/28 11:40:42;;;;;;;0.40;0.40;;;;;;;9.80;88.91;98637.44;5153064;28;20019;-87
2021/12/28 11:43:13;;;;;;;0.40;0.40;;;;;;;9.75;89.88;98632.50;5168971;28;20401;-86
2021/12/28 11:45:44;;;;;;;0.40;0.40;;;;;;;9.76;90.00;98627.16;5151964;28;20040;-85
2021/12/28 11:48:17;;;;;;;0.60;0.60;;;;;;;9.82;90.62;98623.34;5156753;28;20038;-87
2021/12/28 11:50:48;;;;;;;0.30;0.30;;;;;;;9.73;91.54;98606.38;5171926;28;20030;-87
2021/12/28 11:53:18;;;;;;;0.40;0.40;;;;;;;9.76;91.24;98608.81;5159323;28;20045;-86
2021/12/28 11:55:50;;;;;;;0.47;0.47;;;;;;;9.76;91.04;98597.50;5160405;28;20121;-86
2021/12/28 11:58:52;;;;;;;0.40;0.40;;;;;;;9.88;90.88;98590.69;5154825;28;20050;-87
2021/12/28 12:01:43;;;;;;;0.40;0.40;;;;;;;9.83;91.34;98583.13;5172320;28;20095;-87
2021/12/28 12:04:29;;;;;;;0.50;0.50;;;;;;;9.83;90.87;98582.28;5167998;28;20103;-86
2021/12/28 12:07:15;;;;;;;0.30;0.30;;;;;;;9.80;91.78;98577.19;5170817;28;20029;-88
2021/12/28 12:09:49;;;;;;;0.40;0.40;;;;;;;9.82;91.56;98583.19;5154763;28;20645;-86
2021/12/28 12:12:27;;;;;;;0.40;0.40;;;;;;;9.73;92.16;98603.75;5168648;28;20493;-85
2021/12/28 12:14:58;;;;;;;0.40;0.40;;;;;;;9.74;92.44;98652.59;5151773;28;20283;-85
2021/12/28 12:17:37;;;;;;;0.43;0.43;;;;;;;9.54;89.79;98648.47;5190278;28;20022;-87
2021/12/28 12:21:06;;;;;;;0.40;0.40;;;;;;;9.48;88.66;98645.34;5134795;28;20038;-87
2021/12/28 12:23:21;;;;;;;0.82;0.82;;;;;;;9.44;87.89;98639.44;5169650;28;20041;-88
2021/12/28 12:25:59;;;;;;;0.93;0.93;;;;;;;9.40;86.52;98633.53;5146890;28;20653;-88
2021/12/28 12:28:42;;;;;;;3.00;1.23;;;;;;;9.42;85.67;98621.22;5660003;23;20716;-79
2021/12/28 12:31:52;;;;;;;;;;;;;;;;;;;;;
2021/12/28 12:35:54;;;;;;;;;;;;;;;;;;;;;
2021/12/28 12:42:39;;;;;;;0.40;0.40;;;;;;;9.24;84.45;98628.31;5035904;29;20040;-82
2021/12/28 12:45:57;;;;;;;1.30;0.88;;;;;;;9.32;83.34;98620.03;5110898;28;20108;-82
2021/12/28 12:48:37;;;;;;;0.40;0.40;;;;;;;9.26;83.64;98621.22;5146170;28;20046;-83
2021/12/28 12:51:48;;;;;;;;;;;;;;;;;;;;;
2021/12/28 12:54:52;;;;;;;;;;;;;;;;;;;;;
2021/12/28 12:57:58;;;;;;;;;;;;;;;;;;;;;
2021/12/28 13:00:40;;;;;;;0.52;0.52;;;;;;;9.25;82.37;98623.91;5160377;28;20170;-82
2021/12/28 13:03:36;;;;;;;0.57;0.57;;;;;;;9.27;82.34;98615.03;5141003;28;20106;-82
2021/12/28 13:07:13;;;;;;;;;;;;;;;;;;;;;